Time;durP1;ratioP1;P1;durP2;ratioP2;P2;SDS_P1;SDS_P2;PMS_P1;PMS_P2;Temp;Humidity;BMP_temperature;BMP_pressure;BME280_temperature;BME280_humidity;BME280_pressure;Samples;Min_cycle;Max_cycle;Signal;HPM_P1;HPM_P2
2023/10/29 00:00:10;;;;;;;3.80;2.58;;;11.10;99.90;;;;;;5042073;28;20041;-62
2023/10/29 00:02:36;;;;;;;3.88;2.70;;;11.10;99.90;;;;;;5060415;28;20032;-63
2023/10/29 00:05:02;;;;;;;4.72;2.80;;;11.10;99.90;;;;;;5042492;28;20456;-62
2023/10/29 00:07:27;;;;;;;3.83;2.80;;;11.10;99.90;;;;;;5044735;28;20086;-62
2023/10/29 00:09:53;;;;;;;5.20;2.85;;;11.20;99.90;;;;;;5039790;28;20973;-63
2023/10/29 00:12:18;;;;;;;3.00;2.70;;;11.20;99.90;;;;;;5057118;28;20082;-62
2023/10/29 00:14:44;;;;;;;5.20;3.13;;;11.20;99.90;;;;;;5058802;28;20040;-63
2023/10/29 00:17:10;;;;;;;3.53;2.92;;;11.20;99.90;;;;;;5045614;28;20032;-63
2023/10/29 00:19:35;;;;;;;3.42;3.10;;;11.20;99.90;;;;;;5065207;28;20040;-63
2023/10/29 00:22:01;;;;;;;3.72;3.00;;;11.20;99.90;;;;;;5045012;28;20063;-62
2023/10/29 00:24:27;;;;;;;4.03;2.92;;;11.20;99.90;;;;;;5059409;28;20498;-62
2023/10/29 00:26:53;;;;;;;4.07;2.90;;;11.20;99.90;;;;;;5058995;28;20032;-63
2023/10/29 00:29:18;;;;;;;2.97;2.67;;;11.20;99.90;;;;;;5059198;28;20040;-63
2023/10/29 00:31:44;;;;;;;3.63;3.10;;;11.20;99.90;;;;;;5037603;28;20046;-62
2023/10/29 00:34:10;;;;;;;3.90;2.70;;;11.30;99.90;;;;;;5062611;28;20514;-63
2023/10/29 00:36:35;;;;;;;4.03;2.30;;;11.30;99.90;;;;;;5040565;28;20457;-63
2023/10/29 00:39:01;;;;;;;2.72;2.50;;;11.30;99.90;;;;;;5059523;28;20064;-63
2023/10/29 00:41:27;;;;;;;3.53;2.50;;;11.30;99.90;;;;;;5060910;28;20044;-63
2023/10/29 00:43:53;;;;;;;3.50;2.50;;;11.40;99.90;;;;;;5043594;28;20052;-63
2023/10/29 00:46:19;;;;;;;2.83;2.47;;;11.40;99.90;;;;;;5058430;28;20045;-63
2023/10/29 00:48:46;;;;;;;2.42;2.17;;;11.40;99.90;;;;;;5043155;28;20428;-62
2023/10/29 00:51:12;;;;;;;3.05;2.30;;;11.40;99.90;;;;;;5043748;28;20060;-63
2023/10/29 00:53:39;;;;;;;3.30;2.50;;;11.50;99.90;;;;;;5046637;28;20047;-62
2023/10/29 00:56:05;;;;;;;2.90;2.60;;;11.50;99.90;;;;;;5062075;28;20048;-62
2023/10/29 00:58:32;;;;;;;3.20;2.40;;;11.50;99.90;;;;;;5062533;28;20044;-63
2023/10/29 01:00:58;;;;;;;2.88;2.55;;;11.50;99.90;;;;;;5042159;28;20040;-63
2023/10/29 01:03:24;;;;;;;3.28;2.40;;;11.60;99.90;;;;;;5047270;28;20066;-63
2023/10/29 01:05:51;;;;;;;2.67;2.47;;;11.60;99.90;;;;;;5045298;28;20080;-63
2023/10/29 01:08:17;;;;;;;3.65;2.60;;;11.60;99.90;;;;;;5039075;28;20125;-62
2023/10/29 01:10:42;;;;;;;4.63;2.70;;;11.60;99.90;;;;;;5038895;28;20086;-63
2023/10/29 01:13:08;;;;;;;4.75;2.70;;;11.60;99.90;;;;;;5058579;28;20024;-63
2023/10/29 01:15:34;;;;;;;3.75;2.60;;;11.70;99.90;;;;;;5037974;28;20045;-63
2023/10/29 01:17:59;;;;;;;3.03;2.40;;;11.70;99.90;;;;;;5042484;28;20054;-63
2023/10/29 01:20:25;;;;;;;3.97;2.88;;;11.70;99.90;;;;;;5038473;28;20498;-63
2023/10/29 01:22:51;;;;;;;3.25;2.72;;;11.70;99.90;;;;;;5038270;28;20407;-63
2023/10/29 01:25:17;;;;;;;4.07;2.60;;;11.70;99.90;;;;;;5059462;28;20044;-62
2023/10/29 01:27:44;;;;;;;3.13;2.25;;;11.70;99.90;;;;;;5060266;28;20033;-62
2023/10/29 01:30:11;;;;;;;3.97;2.30;;;11.80;99.90;;;;;;5046794;28;20047;-62
2023/10/29 01:32:37;;;;;;;5.00;2.67;;;11.80;99.90;;;;;;5044788;28;20044;-62
2023/10/29 01:35:03;;;;;;;5.13;2.20;;;11.80;99.90;;;;;;5042271;28;20135;-63
2023/10/29 01:37:29;;;;;;;5.28;2.20;;;11.80;99.90;;;;;;5046355;28;20143;-62
2023/10/29 01:39:55;;;;;;;3.60;2.00;;;11.90;99.90;;;;;;5030100;28;20063;-63
2023/10/29 01:42:21;;;;;;;3.53;2.03;;;11.90;99.90;;;;;;5044916;28;20517;-63
2023/10/29 01:44:46;;;;;;;4.85;2.38;;;12.00;99.90;;;;;;5045266;28;20052;-62
2023/10/29 01:47:12;;;;;;;5.32;1.88;;;11.90;99.90;;;;;;5041637;28;20360;-62
2023/10/29 01:49:37;;;;;;;2.22;1.70;;;11.90;99.90;;;;;;5042181;28;20108;-63
2023/10/29 01:52:04;;;;;;;2.28;1.70;;;12.00;99.90;;;;;;5043262;28;20037;-63
2023/10/29 01:54:30;;;;;;;3.13;1.90;;;12.00;99.90;;;;;;5037965;28;20040;-63
2023/10/29 01:56:55;;;;;;;3.20;1.58;;;12.00;99.90;;;;;;5027348;28;20113;-62
2023/10/29 01:59:21;;;;;;;4.32;1.48;;;12.00;99.90;;;;;;5066926;28;20045;-63
2023/10/29 02:01:48;;;;;;;3.65;1.40;;;12.00;99.90;;;;;;5043932;28;20041;-63
2023/10/29 02:04:14;;;;;;;3.28;1.60;;;12.00;99.90;;;;;;5046682;28;20119;-63
2023/10/29 02:06:40;;;;;;;1.67;1.50;;;12.10;99.90;;;;;;5062708;28;20129;-62
2023/10/29 02:09:08;;;;;;;4.45;1.50;;;12.10;99.90;;;;;;5041007;28;20048;-62
2023/10/29 02:11:35;;;;;;;2.97;1.40;;;12.10;99.90;;;;;;5062811;28;20041;-62
2023/10/29 02:14:01;;;;;;;3.50;1.30;;;12.20;99.90;;;;;;5045500;28;20094;-62
2023/10/29 02:16:27;;;;;;;3.92;1.30;;;12.20;99.90;;;;;;5047103;28;20044;-62
2023/10/29 02:18:52;;;;;;;3.90;1.48;;;12.20;99.90;;;;;;5039849;28;20045;-62
2023/10/29 02:21:20;;;;;;;3.15;1.30;;;12.20;99.90;;;;;;5066140;28;20087;-62
2023/10/29 02:23:46;;;;;;;1.88;1.15;;;12.20;99.90;;;;;;5042260;28;20079;-62
2023/10/29 02:26:12;;;;;;;3.22;1.20;;;12.20;99.90;;;;;;5042529;28;20128;-62
2023/10/29 02:28:38;;;;;;;4.72;1.35;;;12.20;99.90;;;;;;5040525;28;20143;-63
2023/10/29 02:31:03;;;;;;;5.53;1.20;;;12.20;99.90;;;;;;5043294;28;20043;-63
2023/10/29 02:33:30;;;;;;;3.28;1.20;;;12.20;99.90;;;;;;5040337;28;20040;-62
2023/10/29 02:35:56;;;;;;;3.60;1.05;;;12.20;99.90;;;;;;5059925;28;20044;-63
2023/10/29 02:38:23;;;;;;;2.00;1.00;;;12.20;99.90;;;;;;5044172;28;20047;-62
2023/10/29 02:40:48;;;;;;;3.10;1.23;;;12.20;99.90;;;;;;5064215;28;20082;-63
2023/10/29 02:43:15;;;;;;;3.05;1.02;;;12.30;99.90;;;;;;5063343;28;20044;-62
2023/10/29 02:45:41;;;;;;;3.10;1.05;;;12.20;99.90;;;;;;5044125;28;20427;-62
2023/10/29 02:48:07;;;;;;;3.58;1.00;;;12.20;99.90;;;;;;5041709;28;20094;-63
2023/10/29 02:50:33;;;;;;;3.60;1.00;;;12.30;99.90;;;;;;5056423;28;20364;-63
2023/10/29 02:52:58;;;;;;;2.53;1.00;;;12.30;99.90;;;;;;5027179;28;20047;-62
2023/10/29 02:55:24;;;;;;;1.90;1.33;;;12.30;99.90;;;;;;5046714;28;20637;-62
2023/10/29 02:57:49;;;;;;;1.92;1.10;;;12.30;99.90;;;;;;5042798;28;20075;-63
2023/10/29 03:00:15;;;;;;;2.08;1.17;;;12.40;99.90;;;;;;5061398;28;20181;-63
2023/10/29 03:02:41;;;;;;;1.83;0.90;;;12.30;99.90;;;;;;5045186;28;20079;-62
2023/10/29 03:05:10;;;;;;;2.53;0.88;;;12.40;99.90;;;;;;5041100;28;20140;-62
2023/10/29 03:07:36;;;;;;;2.47;1.10;;;12.40;99.90;;;;;;5063402;28;20056;-63
2023/10/29 03:10:02;;;;;;;2.30;1.10;;;12.40;99.90;;;;;;5069019;28;20526;-63
2023/10/29 03:12:27;;;;;;;3.45;0.88;;;12.40;99.90;;;;;;5051260;28;20040;-63
2023/10/29 03:14:53;;;;;;;2.35;0.90;;;12.50;99.90;;;;;;5053029;28;20068;-63
2023/10/29 03:17:19;;;;;;;2.45;0.80;;;12.50;99.90;;;;;;5047099;28;20124;-63
2023/10/29 03:19:44;;;;;;;2.53;1.25;;;12.50;99.90;;;;;;5070881;28;20437;-63
2023/10/29 03:22:10;;;;;;;1.63;0.73;;;12.50;99.90;;;;;;5043067;28;21241;-63
2023/10/29 03:24:36;;;;;;;2.30;1.00;;;12.50;99.90;;;;;;5045755;28;20529;-62
2023/10/29 03:27:01;;;;;;;1.08;0.80;;;12.60;99.90;;;;;;5063962;28;20036;-63
2023/10/29 03:29:30;;;;;;;1.63;0.60;;;12.60;99.90;;;;;;5060241;28;20037;-63
2023/10/29 03:31:55;;;;;;;0.65;0.60;;;12.60;99.90;;;;;;5065310;28;20040;-62
2023/10/29 03:34:21;;;;;;;3.05;0.90;;;12.60;99.90;;;;;;5045095;28;20042;-63
2023/10/29 03:36:47;;;;;;;2.80;1.70;;;12.60;99.90;;;;;;5059786;28;20041;-63
2023/10/29 03:39:12;;;;;;;2.67;0.90;;;12.60;99.90;;;;;;5045159;28;20110;-63
2023/10/29 03:41:38;;;;;;;2.95;1.02;;;12.60;99.90;;;;;;5042413;28;20040;-63
2023/10/29 03:44:03;;;;;;;0.77;0.52;;;12.60;99.90;;;;;;5041135;28;20076;-63
2023/10/29 03:46:29;;;;;;;2.00;0.68;;;12.60;99.90;;;;;;5059488;28;20079;-63
2023/10/29 03:48:55;;;;;;;1.77;0.65;;;12.60;99.90;;;;;;5037942;28;20045;-63
2023/10/29 03:51:21;;;;;;;1.30;0.80;;;12.70;99.90;;;;;;5038896;28;20045;-62
2023/10/29 03:53:46;;;;;;;1.67;0.80;;;12.70;99.90;;;;;;5062068;28;20399;-63
2023/10/29 03:56:12;;;;;;;3.00;0.80;;;12.60;99.90;;;;;;5059482;28;20446;-63
2023/10/29 03:58:38;;;;;;;1.48;0.70;;;12.70;99.90;;;;;;5041913;28;20047;-62
2023/10/29 04:01:04;;;;;;;2.15;0.68;;;12.70;99.90;;;;;;5057907;28;20037;-63
2023/10/29 04:03:30;;;;;;;3.35;0.95;;;12.70;99.90;;;;;;5063292;28;20435;-63
2023/10/29 04:05:56;;;;;;;3.03;0.93;;;12.70;99.90;;;;;;5048080;28;20045;-63
2023/10/29 04:08:22;;;;;;;0.88;0.70;;;12.70;99.90;;;;;;5048431;28;20036;-63
2023/10/29 04:10:48;;;;;;;2.05;0.85;;;12.70;99.90;;;;;;5059469;28;20028;-62
2023/10/29 04:13:14;;;;;;;2.53;0.80;;;12.70;99.90;;;;;;5046382;28;20037;-63
2023/10/29 04:15:39;;;;;;;1.92;0.88;;;12.80;99.90;;;;;;5031835;28;20044;-63
2023/10/29 04:18:05;;;;;;;1.13;0.70;;;12.70;99.90;;;;;;5046911;28;20047;-62
2023/10/29 04:20:31;;;;;;;1.80;0.80;;;12.70;99.90;;;;;;5045108;28;20391;-62
2023/10/29 04:22:56;;;;;;;1.42;0.70;;;12.70;99.90;;;;;;5048731;28;20055;-63
2023/10/29 04:25:22;;;;;;;1.90;0.40;;;12.70;99.90;;;;;;5044838;28;20044;-63
2023/10/29 04:27:48;;;;;;;2.13;0.88;;;12.70;99.90;;;;;;5064501;28;20036;-63
2023/10/29 04:30:13;;;;;;;2.67;0.40;;;12.70;99.90;;;;;;5043975;28;20035;-63
2023/10/29 04:32:39;;;;;;;2.35;0.40;;;12.60;99.90;;;;;;5044828;28;20978;-63
2023/10/29 04:35:05;;;;;;;1.38;0.40;;;12.50;99.90;;;;;;5048324;28;20041;-63
2023/10/29 04:37:31;;;;;;;2.17;0.47;;;12.40;99.90;;;;;;5049976;28;20075;-62
2023/10/29 04:39:56;;;;;;;0.82;0.28;;;12.30;99.90;;;;;;5066813;28;20042;-63
2023/10/29 04:42:22;;;;;;;0.65;0.30;;;12.20;99.90;;;;;;5048746;28;20037;-63
2023/10/29 04:44:48;;;;;;;1.23;0.38;;;12.20;99.90;;;;;;5047200;28;20436;-63
2023/10/29 04:47:13;;;;;;;2.20;0.40;;;12.10;99.90;;;;;;5066414;28;20044;-63
2023/10/29 04:49:39;;;;;;;1.00;0.43;;;12.10;99.90;;;;;;5067535;28;20170;-62
2023/10/29 04:52:05;;;;;;;1.83;0.77;;;12.10;99.90;;;;;;5064370;28;20475;-63
2023/10/29 04:54:30;;;;;;;2.15;0.60;;;12.10;99.90;;;;;;5048562;28;20145;-62
2023/10/29 04:56:56;;;;;;;3.60;0.70;;;12.20;99.90;;;;;;5050125;28;20044;-63
2023/10/29 04:59:22;;;;;;;2.90;0.60;;;12.30;99.90;;;;;;5047977;28;20067;-63
2023/10/29 05:01:47;;;;;;;1.70;0.68;;;12.40;99.90;;;;;;5064823;28;20170;-62
2023/10/29 05:04:13;;;;;;;2.88;0.65;;;12.40;99.90;;;;;;5068919;28;20457;-63
2023/10/29 05:06:38;;;;;;;3.70;0.80;;;12.50;99.90;;;;;;5048459;28;20053;-63
2023/10/29 05:09:04;;;;;;;1.10;0.52;;;12.50;99.90;;;;;;5048938;28;20055;-62
2023/10/29 05:11:31;;;;;;;2.17;0.68;;;12.50;99.90;;;;;;5067813;28;20051;-62
2023/10/29 05:13:57;;;;;;;0.93;0.60;;;12.60;99.90;;;;;;5043960;28;20037;-63
2023/10/29 05:16:23;;;;;;;2.60;0.82;;;12.60;99.90;;;;;;5046504;28;20419;-63
2023/10/29 05:18:49;;;;;;;1.15;0.60;;;12.70;99.90;;;;;;5049727;28;20040;-62
2023/10/29 05:21:14;;;;;;;4.03;0.70;;;12.70;99.90;;;;;;5062597;28;20045;-62
2023/10/29 05:23:40;;;;;;;1.67;0.70;;;12.70;99.90;;;;;;5047745;28;20048;-62
2023/10/29 05:26:06;;;;;;;3.10;0.60;;;12.70;99.90;;;;;;5028653;28;20052;-62
2023/10/29 05:28:32;;;;;;;1.30;0.55;;;12.70;99.90;;;;;;5054301;28;20037;-63
2023/10/29 05:30:57;;;;;;;2.03;0.77;;;12.80;99.90;;;;;;5047091;28;20487;-63
2023/10/29 05:33:23;;;;;;;4.13;0.68;;;12.80;99.90;;;;;;5047954;28;20045;-62
2023/10/29 05:35:48;;;;;;;3.58;1.20;;;12.80;99.90;;;;;;5050388;28;20037;-63
2023/10/29 05:38:14;;;;;;;1.50;0.50;;;12.80;99.90;;;;;;5050973;28;20040;-63
2023/10/29 05:40:40;;;;;;;3.72;0.70;;;12.80;99.90;;;;;;5068572;28;20498;-62
2023/10/29 05:43:06;;;;;;;1.52;0.40;;;12.80;99.90;;;;;;5057297;28;20044;-63
2023/10/29 05:45:31;;;;;;;2.53;0.80;;;12.80;99.90;;;;;;5049047;28;20045;-63
2023/10/29 05:47:58;;;;;;;1.83;0.63;;;12.80;99.90;;;;;;5051751;28;20052;-63
2023/10/29 05:50:24;;;;;;;1.73;0.50;;;12.80;99.90;;;;;;5050491;28;20044;-62
2023/10/29 05:52:50;;;;;;;1.95;0.40;;;12.80;99.90;;;;;;5048375;28;20468;-62
2023/10/29 05:55:18;;;;;;;1.75;0.60;;;12.80;99.90;;;;;;5046848;28;20491;-62
2023/10/29 05:57:44;;;;;;;2.42;0.50;;;12.80;99.90;;;;;;5057777;28;20066;-62
2023/10/29 06:00:11;;;;;;;2.90;0.68;;;12.80;99.90;;;;;;5072499;28;20044;-62
2023/10/29 06:02:38;;;;;;;1.35;0.45;;;12.80;99.90;;;;;;5055068;28;20082;-62
2023/10/29 06:05:05;;;;;;;1.45;0.40;;;12.80;99.90;;;;;;5053426;28;20051;-62
2023/10/29 06:07:30;;;;;;;3.67;0.73;;;12.80;99.90;;;;;;5072983;28;20039;-62
2023/10/29 06:09:56;;;;;;;2.67;0.40;;;12.80;99.90;;;;;;5055368;28;20426;-62
2023/10/29 06:12:22;;;;;;;2.65;0.77;;;12.80;99.90;;;;;;5072591;28;20032;-62
2023/10/29 06:14:48;;;;;;;1.02;0.57;;;12.80;99.90;;;;;;5053447;28;20079;-62
2023/10/29 06:17:14;;;;;;;2.53;0.60;;;12.70;99.90;;;;;;5052036;28;20048;-62
2023/10/29 06:19:39;;;;;;;1.92;0.60;;;12.70;99.90;;;;;;5071781;28;20439;-62
2023/10/29 06:22:09;;;;;;;3.83;0.50;;;12.80;99.90;;;;;;5055099;28;20109;-62
2023/10/29 06:24:35;;;;;;;1.70;0.57;;;12.80;99.90;;;;;;5035673;28;20084;-62
2023/10/29 06:27:02;;;;;;;4.00;0.80;;;12.80;99.90;;;;;;5052710;28;20109;-62
2023/10/29 06:29:28;;;;;;;3.15;0.60;;;12.80;99.90;;;;;;5053810;28;20044;-62
2023/10/29 06:31:53;;;;;;;1.40;0.40;;;12.90;99.90;;;;;;5057847;28;20542;-62
2023/10/29 06:34:21;;;;;;;2.15;0.73;;;12.80;99.90;;;;;;5071946;28;20488;-62
2023/10/29 06:36:46;;;;;;;2.33;0.50;;;12.80;99.90;;;;;;5052067;28;20033;-63
2023/10/29 06:39:12;;;;;;;0.88;0.50;;;12.80;99.90;;;;;;5070159;28;20055;-62
2023/10/29 06:41:38;;;;;;;1.25;0.40;;;12.80;99.90;;;;;;5055354;28;20117;-62
2023/10/29 06:44:04;;;;;;;0.80;0.40;;;12.80;99.90;;;;;;5070191;28;20032;-62
2023/10/29 06:46:31;;;;;;;2.88;0.70;;;12.90;99.90;;;;;;5058521;28;20455;-62
2023/10/29 06:48:58;;;;;;;1.45;0.60;;;12.80;99.90;;;;;;5083164;28;20148;-63
2023/10/29 06:51:23;;;;;;;2.88;0.57;;;12.80;99.90;;;;;;5073416;28;20043;-63
2023/10/29 06:53:49;;;;;;;2.67;0.50;;;12.80;99.90;;;;;;5056410;28;20036;-62
2023/10/29 06:56:15;;;;;;;1.52;0.40;;;12.80;99.90;;;;;;5057692;28;20052;-62
2023/10/29 06:58:41;;;;;;;2.90;0.65;;;12.80;99.90;;;;;;5053391;28;20051;-62
2023/10/29 07:01:11;;;;;;;1.70;0.50;;;12.80;99.90;;;;;;5052750;28;20384;-62
2023/10/29 07:03:42;;;;;;;2.45;0.60;;;12.70;99.90;;;;;;5071731;28;20028;-62
2023/10/29 07:06:14;;;;;;;2.35;0.75;;;12.70;99.90;;;;;;5053692;28;20552;-62
2023/10/29 07:08:39;;;;;;;2.33;0.60;;;12.70;99.90;;;;;;5036535;28;20037;-62
2023/10/29 07:11:05;;;;;;;1.88;0.60;;;12.70;99.90;;;;;;5053044;28;20112;-62
2023/10/29 07:13:32;;;;;;;2.80;0.85;;;12.70;99.90;;;;;;5052166;28;20506;-62
2023/10/29 07:15:59;;;;;;;2.40;0.60;;;12.80;99.90;;;;;;5053373;28;20033;-63
2023/10/29 07:18:25;;;;;;;1.70;0.60;;;12.80;99.90;;;;;;5071349;28;20048;-62
2023/10/29 07:20:55;;;;;;;3.42;0.88;;;12.90;99.90;;;;;;5071666;28;20038;-62
2023/10/29 07:23:22;;;;;;;2.33;0.63;;;12.90;99.90;;;;;;5052903;28;20044;-63
2023/10/29 07:25:48;;;;;;;2.55;0.50;;;13.00;99.90;;;;;;5051907;28;20499;-62
2023/10/29 07:28:17;;;;;;;2.28;0.70;;;13.00;99.90;;;;;;5053502;28;20052;-62
2023/10/29 07:30:43;;;;;;;3.15;0.70;;;13.00;99.90;;;;;;5053541;28;20041;-62
2023/10/29 07:33:10;;;;;;;3.40;0.60;;;13.00;99.90;;;;;;5053078;28;20071;-62
2023/10/29 07:35:39;;;;;;;5.72;0.57;;;13.00;99.90;;;;;;5053045;28;20402;-63
2023/10/29 07:38:07;;;;;;;2.20;0.60;;;13.00;99.90;;;;;;5053445;28;20041;-62
2023/10/29 07:40:33;;;;;;;3.22;0.82;;;13.00;99.90;;;;;;5053367;28;20071;-62
2023/10/29 07:42:59;;;;;;;3.28;0.90;;;13.00;99.90;;;;;;5053242;28;20036;-63
2023/10/29 07:45:25;;;;;;;2.38;0.70;;;13.00;99.90;;;;;;5053452;28;20391;-62
2023/10/29 07:47:50;;;;;;;3.78;0.80;;;13.10;99.90;;;;;;5051371;28;20396;-63
2023/10/29 07:50:16;;;;;;;3.80;0.60;;;13.00;99.90;;;;;;5053607;28;20143;-62
2023/10/29 07:52:42;;;;;;;3.33;0.80;;;13.10;99.90;;;;;;5070623;28;20074;-62
2023/10/29 07:55:09;;;;;;;2.58;0.70;;;13.10;99.90;;;;;;5070865;28;20075;-62
2023/10/29 07:57:41;;;;;;;3.25;0.65;;;13.10;99.90;;;;;;5035043;28;20068;-62
2023/10/29 08:00:10;;;;;;;3.33;0.60;;;13.00;99.90;;;;;;5070292;28;20044;-63
2023/10/29 08:02:36;;;;;;;4.72;0.80;;;13.10;99.90;;;;;;5053353;28;20072;-62
2023/10/29 08:05:03;;;;;;;4.65;1.00;;;13.10;99.90;;;;;;5070241;28;20076;-62
2023/10/29 08:07:29;;;;;;;4.78;0.88;;;13.10;99.90;;;;;;5049840;28;20123;-63
2023/10/29 08:09:56;;;;;;;3.47;0.77;;;13.10;99.90;;;;;;5053292;28;20119;-63
2023/10/29 08:12:22;;;;;;;5.10;0.68;;;13.10;99.90;;;;;;5051325;28;20052;-63
2023/10/29 08:14:48;;;;;;;2.58;0.80;;;13.10;99.90;;;;;;5070510;28;20075;-63
2023/10/29 08:17:17;;;;;;;3.92;0.82;;;13.10;99.90;;;;;;5050030;28;20068;-63
2023/10/29 08:19:46;;;;;;;3.58;0.90;;;13.20;99.90;;;;;;5035997;28;20040;-63
2023/10/29 08:22:12;;;;;;;3.85;0.88;;;13.20;99.90;;;;;;5051798;28;20434;-62
2023/10/29 08:24:39;;;;;;;4.30;1.10;;;13.30;99.90;;;;;;5053027;28;20044;-63
2023/10/29 08:27:08;;;;;;;4.43;0.90;;;13.30;99.90;;;;;;5070068;28;20049;-63
2023/10/29 08:29:38;;;;;;;2.13;0.77;;;13.40;99.90;;;;;;5051577;28;20123;-63
2023/10/29 08:32:04;;;;;;;4.65;1.00;;;13.40;99.90;;;;;;5050548;28;20521;-63
2023/10/29 08:34:30;;;;;;;4.13;0.70;;;13.50;99.90;;;;;;5048431;28;20033;-62
2023/10/29 08:36:56;;;;;;;3.55;0.80;;;13.50;99.90;;;;;;5050157;28;20387;-63
2023/10/29 08:39:23;;;;;;;3.00;0.68;;;13.60;99.90;;;;;;5048302;28;20075;-62
2023/10/29 08:41:49;;;;;;;4.10;0.70;;;13.60;99.90;;;;;;5047951;28;20038;-63
2023/10/29 08:44:15;;;;;;;2.38;0.60;;;13.70;99.90;;;;;;5066736;28;20109;-63
2023/10/29 08:46:43;;;;;;;2.88;0.55;;;13.70;99.90;;;;;;5050363;28;20036;-63
2023/10/29 08:49:08;;;;;;;3.00;0.63;;;13.60;99.90;;;;;;5049612;28;20067;-62
2023/10/29 08:51:34;;;;;;;3.58;0.70;;;13.60;99.90;;;;;;5052298;28;20028;-63
2023/10/29 08:54:02;;;;;;;3.50;0.77;;;13.70;99.90;;;;;;5050755;28;20471;-63
2023/10/29 08:56:29;;;;;;;2.58;0.70;;;13.80;99.90;;;;;;5050995;28;20056;-63
2023/10/29 08:58:55;;;;;;;4.13;0.60;;;13.80;99.90;;;;;;5052236;28;20538;-63
2023/10/29 09:01:20;;;;;;;3.03;0.52;;;13.90;99.90;;;;;;5050508;28;20139;-63
2023/10/29 09:03:46;;;;;;;3.60;0.77;;;13.90;99.90;;;;;;5048147;28;20051;-63
2023/10/29 09:06:12;;;;;;;4.45;0.82;;;13.80;99.90;;;;;;5067686;28;20047;-63
2023/10/29 09:08:39;;;;;;;3.90;0.50;;;13.80;99.90;;;;;;5051665;28;20044;-63
2023/10/29 09:11:05;;;;;;;3.97;0.80;;;13.80;99.90;;;;;;5049186;28;20040;-63
2023/10/29 09:13:31;;;;;;;3.00;0.90;;;13.90;99.90;;;;;;5049729;28;20047;-63
2023/10/29 09:15:57;;;;;;;2.80;0.77;;;13.80;99.90;;;;;;5070437;28;20036;-63
2023/10/29 09:18:23;;;;;;;4.18;0.93;;;13.80;99.90;;;;;;5051880;28;20051;-63
2023/10/29 09:20:50;;;;;;;4.25;1.02;;;13.90;99.90;;;;;;5066929;28;20036;-62
2023/10/29 09:23:16;;;;;;;5.65;0.90;;;13.90;99.90;;;;;;5050133;28;20080;-63
2023/10/29 09:25:45;;;;;;;6.40;1.10;;;13.90;99.90;;;;;;5068257;28;20133;-62
2023/10/29 09:28:11;;;;;;;3.28;0.73;;;13.90;99.90;;;;;;5069771;28;20048;-63
2023/10/29 09:30:41;;;;;;;5.13;0.90;;;13.90;99.90;;;;;;5069893;28;20044;-63
2023/10/29 09:33:12;;;;;;;4.15;1.42;;;13.80;99.90;;;;;;5034502;28;20047;-62
2023/10/29 09:35:39;;;;;;;5.65;0.95;;;13.70;99.90;;;;;;5048954;28;20051;-62
2023/10/29 09:38:05;;;;;;;5.22;1.05;;;13.80;99.90;;;;;;5068755;28;20063;-63
2023/10/29 09:40:31;;;;;;;3.72;0.80;;;13.80;99.90;;;;;;5051182;28;20048;-63
2023/10/29 09:43:02;;;;;;;4.45;1.00;;;13.80;99.90;;;;;;5051322;28;20499;-62
2023/10/29 09:45:27;;;;;;;4.15;1.08;;;13.80;99.90;;;;;;5050381;28;20048;-62
2023/10/29 09:47:54;;;;;;;4.55;1.15;;;13.70;99.90;;;;;;5051085;28;20398;-62
2023/10/29 09:50:24;;;;;;;3.00;0.88;;;13.90;99.90;;;;;;5048179;28;20052;-63
2023/10/29 09:52:53;;;;;;;6.97;1.05;;;14.20;99.90;;;;;;5051032;28;20127;-62
2023/10/29 09:55:20;;;;;;;4.35;0.90;;;14.60;99.90;;;;;;5069718;28;20387;-62
2023/10/29 09:57:46;;;;;;;4.95;1.20;;;14.60;99.90;;;;;;5051108;28;20059;-63
2023/10/29 10:00:15;;;;;;;5.53;1.30;;;14.70;99.90;;;;;;5051712;28;20115;-63
2023/10/29 10:02:58;;;;;;;5.60;1.10;;;14.80;99.90;;;;;;5051561;28;20053;-63
2023/10/29 10:05:25;;;;;;;3.92;1.00;;;14.60;99.90;;;;;;5051550;28;20071;-63
2023/10/29 10:07:52;;;;;;;7.38;1.45;;;14.40;99.90;;;;;;5069131;28;20044;-63
2023/10/29 10:10:21;;;;;;;5.38;1.02;;;14.30;99.90;;;;;;5051481;28;20119;-63
2023/10/29 10:12:51;;;;;;;2.60;1.20;;;14.30;99.90;;;;;;5050478;28;20683;-62
2023/10/29 10:15:20;;;;;;;7.28;1.20;;;14.40;99.90;;;;;;5068064;28;20048;-62
2023/10/29 10:17:57;;;;;;;7.72;1.00;;;14.50;99.90;;;;;;5068145;28;20087;-62
2023/10/29 10:20:23;;;;;;;4.10;1.02;;;14.50;99.90;;;;;;5055282;28;20048;-62
2023/10/29 10:22:59;;;;;;;4.40;1.25;;;14.40;99.90;;;;;;5055135;28;20062;-62
2023/10/29 10:25:25;;;;;;;5.78;1.30;;;14.30;99.90;;;;;;5055246;28;20438;-63
2023/10/29 10:27:52;;;;;;;4.28;1.23;;;14.20;99.90;;;;;;5054227;28;20036;-62
2023/10/29 10:30:33;;;;;;;7.57;1.15;;;14.10;99.90;;;;;;5049357;28;20434;-63
2023/10/29 10:33:14;;;;;;;6.70;1.38;;;14.10;99.90;;;;;;5053542;28;20041;-63
2023/10/29 10:35:45;;;;;;;2.88;1.02;;;14.00;99.90;;;;;;5052179;28;20040;-62
2023/10/29 10:38:11;;;;;;;6.35;1.23;;;14.10;99.90;;;;;;5053030;28;20044;-63
2023/10/29 10:40:38;;;;;;;6.22;1.10;;;14.10;99.90;;;;;;5054388;28;20045;-62
2023/10/29 10:43:04;;;;;;;3.88;1.10;;;14.10;99.90;;;;;;5054341;28;20063;-62
2023/10/29 10:45:32;;;;;;;4.97;1.10;;;14.10;99.90;;;;;;5054845;28;20039;-63
2023/10/29 10:48:00;;;;;;;4.28;1.30;;;14.20;99.90;;;;;;5065644;28;20486;-63
2023/10/29 10:50:27;;;;;;;5.88;1.40;;;14.20;99.90;;;;;;5065027;28;20085;-62
2023/10/29 10:52:54;;;;;;;5.72;1.10;;;14.20;99.90;;;;;;5051961;28;20049;-63
2023/10/29 10:55:22;;;;;;;6.97;1.27;;;14.20;99.90;;;;;;5037665;28;20091;-62
2023/10/29 10:57:51;;;;;;;5.95;1.38;;;14.10;99.90;;;;;;5054915;28;20115;-62
2023/10/29 11:00:19;;;;;;;6.10;1.60;;;14.10;99.90;;;;;;5037928;28;20048;-63
2023/10/29 11:02:46;;;;;;;4.88;1.17;;;14.00;99.90;;;;;;5053872;28;20045;-62
2023/10/29 11:05:15;;;;;;;6.25;1.20;;;14.00;99.90;;;;;;5047196;28;20060;-62
2023/10/29 11:07:42;;;;;;;5.63;1.17;;;14.00;99.90;;;;;;5064777;28;20075;-62
2023/10/29 11:10:11;;;;;;;6.80;1.30;;;14.10;99.90;;;;;;5028099;28;20056;-63
2023/10/29 11:12:38;;;;;;;9.57;1.20;;;14.30;99.90;;;;;;5050913;28;20123;-63
2023/10/29 11:15:23;;;;;;;7.63;1.27;;;14.60;99.90;;;;;;5054414;28;20045;-62
2023/10/29 11:17:53;;;;;;;9.32;1.63;;;14.90;99.90;;;;;;5052341;28;20147;-63
2023/10/29 11:20:46;;;;;;;13.05;1.77;;;15.00;99.90;;;;;;5053447;28;20039;-63
2023/10/29 11:23:25;;;;;;;7.68;1.35;;;15.00;99.90;;;;;;5053970;28;20436;-62
2023/10/29 11:26:16;;;;;;;8.15;1.40;;;14.90;99.90;;;;;;5054376;28;20051;-62
2023/10/29 11:28:45;;;;;;;4.00;0.85;;;14.80;99.90;;;;;;5072378;28;20519;-62
2023/10/29 11:31:12;;;;;;;3.83;1.00;;;14.80;99.90;;;;;;5053344;28;20043;-63
2023/10/29 11:33:43;;;;;;;6.18;1.27;;;14.70;99.90;;;;;;5071708;28;20040;-63
2023/10/29 11:36:28;;;;;;;6.95;1.52;;;14.70;99.90;;;;;;5071786;28;20139;-63
2023/10/29 11:38:53;;;;;;;4.30;1.10;;;14.60;99.90;;;;;;5054309;28;20044;-63
2023/10/29 11:41:34;;;;;;;5.78;1.15;;;14.50;99.90;;;;;;5071746;28;20569;-63
2023/10/29 11:44:18;;;;;;;6.63;1.58;;;14.50;99.90;;;;;;5071290;28;20040;-62
2023/10/29 11:47:02;;;;;;;3.58;0.95;;;14.40;99.90;;;;;;5051525;28;20052;-63
2023/10/29 11:49:30;;;;;;;5.40;1.20;;;14.40;99.90;;;;;;5043971;28;20039;-62
2023/10/29 11:52:02;;;;;;;5.43;1.17;;;14.40;99.90;;;;;;5044250;28;20766;-63
2023/10/29 11:54:37;;;;;;;4.82;1.08;;;14.30;99.90;;;;;;5043363;28;20679;-62
2023/10/29 11:57:06;;;;;;;8.13;1.27;;;14.30;99.90;;;;;;5045519;28;20123;-62
2023/10/29 11:59:32;;;;;;;5.15;1.00;;;14.20;99.90;;;;;;5043693;28;20041;-62
2023/10/29 12:01:58;;;;;;;4.22;0.80;;;14.20;99.90;;;;;;5062088;28;20047;-62
2023/10/29 12:04:30;;;;;;;4.32;1.23;;;14.20;99.90;;;;;;5049571;28;20048;-63
2023/10/29 12:06:58;;;;;;;6.53;1.15;;;14.30;99.90;;;;;;5044521;28;20134;-62
2023/10/29 12:09:27;;;;;;;6.13;1.17;;;14.30;99.90;;;;;;5048971;28;20040;-62
2023/10/29 12:11:54;;;;;;;5.05;1.10;;;14.20;99.90;;;;;;5047745;28;20055;-62
2023/10/29 12:14:39;;;;;;;7.03;1.58;;;14.20;99.90;;;;;;5061755;28;20048;-63
2023/10/29 12:17:06;;;;;;;6.38;1.13;;;14.20;99.90;;;;;;5042851;28;20111;-62
2023/10/29 12:19:36;;;;;;;4.72;1.10;;;14.20;99.90;;;;;;5044365;28;20128;-63
2023/10/29 12:22:03;;;;;;;5.15;1.08;;;14.20;99.90;;;;;;5060343;28;20041;-63
2023/10/29 12:24:30;;;;;;;6.60;1.42;;;14.20;99.90;;;;;;5070803;28;20115;-62
2023/10/29 12:26:56;;;;;;;7.85;1.25;;;14.20;99.90;;;;;;5069780;28;20060;-63
2023/10/29 12:29:22;;;;;;;6.53;2.25;;;14.20;99.90;;;;;;5070690;28;20102;-63
2023/10/29 12:31:48;;;;;;;7.72;1.58;;;14.10;99.90;;;;;;5070595;28;20123;-62
2023/10/29 12:34:14;;;;;;;6.63;1.20;;;14.10;99.90;;;;;;5052601;28;20036;-63
2023/10/29 12:36:46;;;;;;;5.43;1.05;;;14.10;99.90;;;;;;5052387;28;20040;-63
2023/10/29 12:39:15;;;;;;;6.82;1.15;;;14.10;99.90;;;;;;5048571;28;20037;-62
2023/10/29 12:41:40;;;;;;;5.70;1.13;;;14.00;99.90;;;;;;5051681;28;20170;-62
2023/10/29 12:44:15;;;;;;;8.50;1.42;;;14.10;99.90;;;;;;5052259;28;20127;-62
2023/10/29 12:46:51;;;;;;;6.40;1.40;;;14.00;99.90;;;;;;5052176;28;20052;-62